createdAt,value
2023-04-18T00:02:24.261Z,16.63
2023-04-18T00:04:52.764Z,13.82
2023-04-18T00:07:23.352Z,16.00
2023-04-18T00:09:51.793Z,15.20
2023-04-18T00:12:20.926Z,15.95
2023-04-18T00:14:50.351Z,14.65
2023-04-18T00:17:20.788Z,16.40
2023-04-18T00:19:50.271Z,15.25
2023-04-18T00:22:22.252Z,14.68
2023-04-18T00:24:53.171Z,14.85
2023-04-18T00:27:22.636Z,16.52
2023-04-18T00:29:51.069Z,15.80
2023-04-18T00:32:19.889Z,15.10
2023-04-18T00:34:48.677Z,15.73
2023-04-18T00:37:17.254Z,15.40
2023-04-18T00:39:46.713Z,15.80
2023-04-18T00:42:16.442Z,15.38
2023-04-18T00:44:44.767Z,14.38
2023-04-18T00:47:13.611Z,15.30
2023-04-18T00:49:41.993Z,14.93
2023-04-18T00:52:11.562Z,15.20
2023-04-18T00:54:40.641Z,15.25
2023-04-18T00:57:09.818Z,15.65
2023-04-18T00:59:39.868Z,16.60
2023-04-18T01:02:10.026Z,15.30
2023-04-18T01:04:38.597Z,16.38
2023-04-18T01:07:10.594Z,15.50
2023-04-18T01:09:39.320Z,15.48
2023-04-18T01:12:07.710Z,16.02
2023-04-18T01:14:36.797Z,16.13
2023-04-18T01:17:08.054Z,16.40
2023-04-18T01:19:36.804Z,16.80
2023-04-18T01:22:05.199Z,15.20
2023-04-18T01:24:36.520Z,15.95
2023-04-18T01:27:05.859Z,16.88
2023-04-18T01:29:36.752Z,17.02
2023-04-18T01:32:07.318Z,16.88
2023-04-18T01:34:36.113Z,16.48
2023-04-18T01:37:07.989Z,16.45
2023-04-18T01:39:37.726Z,17.13
2023-04-18T01:42:07.272Z,15.90
2023-04-18T01:44:35.708Z,18.08
2023-04-18T01:47:04.282Z,15.40
2023-04-18T01:49:34.376Z,17.25
2023-04-18T01:52:03.228Z,16.38
2023-04-18T01:54:31.598Z,16.00
2023-04-18T01:57:01.358Z,17.33
2023-04-18T01:59:30.679Z,16.75
2023-04-18T02:02:00.225Z,16.45
2023-04-18T02:04:28.814Z,16.17
2023-04-18T02:06:57.223Z,19.70
2023-04-18T02:09:26.639Z,18.25
2023-04-18T02:11:56.271Z,16.73
2023-04-18T02:14:28.112Z,19.83
2023-04-18T02:16:56.557Z,19.77
2023-04-18T02:19:25.714Z,18.48
2023-04-18T02:21:54.156Z,18.77
2023-04-18T02:24:23.003Z,17.10
2023-04-18T02:26:52.062Z,18.13
2023-04-18T02:29:20.968Z,17.70
2023-04-18T02:31:51.172Z,17.35
2023-04-18T02:34:19.607Z,18.00
2023-04-18T02:36:50.407Z,18.23
2023-04-18T02:39:18.789Z,16.92
2023-04-18T02:41:48.145Z,18.00
2023-04-18T02:44:17.423Z,18.23
2023-04-18T02:46:45.919Z,17.42
2023-04-18T02:49:17.131Z,18.58
2023-04-18T02:51:46.566Z,17.92
2023-04-18T02:54:15.800Z,17.77
2023-04-18T02:56:57.406Z,18.83
2023-04-18T02:59:53.867Z,20.20
2023-04-18T03:02:48.235Z,18.27
2023-04-18T03:05:40.618Z,22.55
2023-04-18T03:08:09.618Z,20.15
2023-04-18T03:10:39.969Z,19.25
2023-04-18T03:13:08.843Z,21.80
2023-04-18T03:15:38.848Z,18.88
2023-04-18T03:18:08.913Z,21.58
2023-04-18T03:20:42.489Z,21.50
2023-04-18T03:23:10.871Z,21.50
2023-04-18T03:25:40.746Z,20.88
2023-04-18T03:28:09.558Z,19.90
2023-04-18T03:30:38.547Z,20.42
2023-04-18T03:33:08.605Z,21.20
2023-04-18T03:35:38.114Z,20.73
2023-04-18T03:38:08.651Z,19.75
2023-04-18T03:40:40.148Z,20.23
2023-04-18T03:43:17.164Z,20.50
2023-04-18T03:45:47.292Z,20.40
2023-04-18T03:48:18.756Z,22.25
2023-04-18T03:50:48.655Z,22.63
2023-04-18T03:53:18.768Z,21.67
2023-04-18T03:55:49.105Z,23.88
2023-04-18T03:58:23.678Z,20.67
2023-04-18T04:00:54.483Z,22.05
2023-04-18T04:03:23.354Z,22.70
2023-04-18T04:05:52.104Z,22.10
2023-04-18T04:08:23.451Z,22.85
2023-04-18T04:10:52.229Z,20.52
2023-04-18T04:13:21.070Z,20.65
2023-04-18T04:15:50.308Z,21.48
2023-04-18T04:18:19.599Z,21.27
2023-04-18T04:20:49.807Z,20.90
2023-04-18T04:23:33.150Z,21.63
2023-04-18T04:26:04.690Z,21.37
2023-04-18T04:28:42.812Z,22.83
2023-04-18T04:31:13.016Z,20.60
2023-04-18T04:33:43.518Z,22.07
2023-04-18T04:36:19.503Z,19.97
2023-04-18T04:38:54.721Z,22.97
2023-04-18T04:41:53.490Z,23.33
2023-04-18T04:44:26.127Z,21.13
2023-04-18T04:46:56.044Z,22.63
2023-04-18T04:49:29.957Z,22.45
2023-04-18T04:52:01.322Z,21.23
2023-04-18T04:54:31.876Z,21.33
2023-04-18T04:57:01.954Z,21.53
2023-04-18T04:59:30.817Z,20.83
2023-04-18T05:01:59.258Z,23.17
2023-04-18T05:04:29.472Z,22.30
2023-04-18T05:06:58.558Z,23.00
2023-04-18T05:09:27.942Z,21.43
2023-04-18T05:11:57.898Z,21.73
2023-04-18T05:14:26.388Z,21.35
2023-04-18T05:16:56.873Z,21.43
2023-04-18T05:19:25.283Z,23.60
2023-04-18T05:21:54.532Z,22.33
2023-04-18T05:24:22.892Z,22.60
2023-04-18T05:26:52.133Z,22.30
2023-04-18T05:29:22.324Z,23.58
2023-04-18T05:31:51.941Z,21.63
2023-04-18T05:34:20.956Z,22.77
2023-04-18T05:36:49.498Z,20.58
2023-04-18T05:39:18.936Z,22.45
2023-04-18T05:41:47.452Z,21.33
2023-04-18T05:44:18.473Z,22.70
2023-04-18T05:46:51.344Z,21.42
2023-04-18T05:49:20.506Z,21.80
2023-04-18T05:51:49.963Z,21.55
2023-04-18T05:54:18.539Z,19.15
2023-04-18T05:56:46.930Z,19.10
2023-04-18T05:59:16.119Z,19.25
2023-04-18T06:01:44.533Z,21.05
2023-04-18T06:04:15.353Z,20.00
2023-04-18T06:06:44.197Z,20.60
2023-04-18T06:09:12.635Z,21.58
2023-04-18T06:11:41.602Z,22.13
2023-04-18T06:14:10.048Z,21.30
2023-04-18T06:16:39.462Z,21.63
2023-04-18T06:19:07.955Z,21.27
2023-04-18T06:21:38.586Z,21.85
2023-04-18T06:24:07.627Z,22.37
2023-04-18T06:26:36.806Z,24.23
2023-04-18T06:29:05.254Z,21.70
2023-04-18T06:31:34.030Z,22.23
2023-04-18T06:34:02.492Z,22.77
2023-04-18T06:36:31.899Z,21.63
2023-04-18T06:39:01.670Z,20.52
2023-04-18T06:41:30.096Z,21.63
2023-04-18T06:44:04.234Z,23.13
2023-04-18T06:46:33.423Z,20.27
2023-04-18T06:49:02.743Z,21.52
2023-04-18T06:51:31.598Z,20.30
2023-04-18T06:54:02.987Z,20.98
2023-04-18T06:56:31.445Z,21.37
2023-04-18T06:59:00.216Z,19.77
2023-04-18T07:01:28.630Z,20.20
2023-04-18T07:03:57.082Z,19.95
2023-04-18T07:06:26.228Z,18.50
2023-04-18T07:09:00.018Z,19.10
2023-04-18T07:11:30.258Z,19.10
2023-04-18T07:13:58.703Z,18.10
2023-04-18T07:16:27.089Z,18.05
2023-04-18T07:18:56.326Z,19.00
2023-04-18T07:21:24.872Z,21.38
2023-04-18T07:23:53.687Z,17.40
2023-04-18T07:26:22.079Z,17.42
2023-04-18T07:28:52.273Z,18.60
2023-04-18T07:31:21.254Z,16.92
2023-04-18T07:33:49.675Z,17.52
2023-04-18T07:36:18.715Z,18.13
2023-04-18T07:38:47.364Z,16.58
2023-04-18T07:41:16.595Z,17.17
2023-04-18T07:43:46.026Z,17.50
2023-04-18T07:46:16.182Z,16.87
2023-04-18T07:48:44.649Z,17.48
2023-04-18T07:51:13.534Z,18.05
2023-04-18T07:53:43.560Z,18.02
2023-04-18T07:56:14.946Z,17.80
2023-04-18T07:58:43.283Z,18.08
2023-04-18T08:01:14.077Z,17.65
2023-04-18T08:03:44.042Z,16.88
2023-04-18T08:06:13.535Z,16.58
2023-04-18T08:08:42.055Z,16.08
2023-04-18T08:11:11.624Z,16.88
2023-04-18T08:13:40.459Z,16.77
2023-04-18T08:16:09.843Z,16.98
2023-04-18T08:18:39.188Z,17.88
2023-04-18T08:21:09.148Z,16.65
2023-04-18T08:23:37.962Z,17.35
2023-04-18T08:26:06.529Z,15.82
2023-04-18T08:28:35.379Z,16.15
2023-04-18T08:31:03.836Z,15.43
2023-04-18T08:33:33.840Z,16.33
2023-04-18T08:36:02.178Z,15.35
2023-04-18T08:38:32.991Z,16.63
2023-04-18T08:41:01.416Z,15.52
2023-04-18T08:43:31.329Z,14.73
2023-04-18T08:46:01.547Z,14.35
2023-04-18T08:48:30.600Z,15.13
2023-04-18T08:51:00.417Z,15.40
2023-04-18T08:53:29.256Z,13.68
2023-04-18T08:56:00.932Z,13.60
2023-04-18T08:58:32.281Z,13.02
2023-04-18T09:01:01.903Z,12.32
2023-04-18T09:03:39.678Z,13.57
2023-04-18T09:06:10.325Z,12.88
2023-04-18T09:08:39.134Z,14.55
2023-04-18T09:11:29.661Z,13.07
2023-04-18T09:13:59.865Z,12.38
2023-04-18T09:16:30.292Z,12.40
2023-04-18T09:19:14.413Z,12.15
2023-04-18T09:21:46.598Z,12.18
2023-04-18T09:24:21.129Z,12.32
2023-04-18T09:26:54.266Z,11.90
2023-04-18T09:29:23.904Z,12.60
2023-04-18T09:31:57.334Z,12.85
2023-04-18T09:34:26.877Z,12.60
2023-04-18T09:37:10.978Z,13.18
2023-04-18T09:39:40.688Z,12.13
2023-04-18T09:42:11.735Z,12.45
2023-04-18T09:45:00.310Z,13.35
2023-04-18T09:47:29.371Z,11.23
2023-04-18T09:49:58.847Z,11.85
2023-04-18T09:52:27.239Z,11.90
2023-04-18T09:55:00.934Z,12.10
2023-04-18T09:57:32.991Z,12.70
2023-04-18T10:00:10.481Z,12.13
2023-04-18T10:02:52.354Z,13.05
2023-04-18T10:05:25.095Z,12.98
2023-04-18T10:07:54.368Z,14.35
2023-04-18T10:10:23.277Z,14.30
2023-04-18T10:12:56.399Z,12.27
2023-04-18T10:15:28.481Z,13.68
2023-04-18T10:18:05.623Z,13.10
2023-04-18T10:20:36.164Z,13.60
2023-04-18T10:23:36.424Z,12.88
2023-04-18T10:26:06.161Z,12.15
2023-04-18T10:28:57.090Z,12.80
2023-04-18T10:31:27.032Z,11.63
2023-04-18T10:36:30.318Z,10.30
2023-04-18T10:39:03.540Z,9.65
2023-04-18T10:41:33.083Z,9.65
2023-04-18T10:44:18.665Z,8.23
2023-04-18T10:47:22.942Z,8.35
2023-04-18T10:49:58.755Z,9.05
2023-04-18T10:52:28.424Z,8.90
2023-04-18T10:55:09.465Z,8.73
2023-04-18T10:57:46.089Z,8.85
2023-04-18T11:00:22.092Z,8.10
2023-04-18T11:02:53.691Z,8.70
2023-04-18T11:05:25.853Z,8.07
2023-04-18T11:07:54.653Z,8.15
2023-04-18T11:10:26.778Z,7.30
2023-04-18T11:12:56.456Z,7.80
2023-04-18T11:15:29.145Z,8.02
2023-04-18T11:18:01.130Z,7.80
2023-04-18T11:20:30.058Z,7.75
2023-04-18T11:23:00.624Z,7.35
2023-04-18T11:25:30.505Z,7.57
2023-04-18T11:28:01.310Z,8.63
2023-04-18T11:30:38.496Z,7.60
2023-04-18T11:33:09.231Z,8.50
2023-04-18T11:35:38.632Z,8.05
2023-04-18T11:38:08.671Z,7.95
2023-04-18T11:40:38.679Z,7.88
2023-04-18T11:43:08.928Z,10.48
2023-04-18T11:45:39.281Z,9.07
2023-04-18T11:48:07.768Z,9.98
2023-04-18T11:50:38.165Z,10.52
2023-04-18T11:53:06.946Z,9.07
2023-04-18T11:55:35.458Z,9.27
2023-04-18T11:58:06.555Z,9.13
2023-04-18T12:00:37.104Z,8.98
2023-04-18T12:03:13.369Z,10.10
2023-04-18T12:05:43.299Z,9.88
2023-04-18T12:08:14.048Z,9.02
2023-04-18T12:10:48.038Z,10.52
2023-04-18T12:13:18.986Z,9.65
2023-04-18T12:15:47.845Z,9.80
2023-04-18T12:18:19.796Z,10.60
2023-04-18T12:20:52.165Z,10.95
2023-04-18T12:23:31.015Z,10.63
2023-04-18T12:26:02.576Z,11.15
2023-04-18T12:28:31.589Z,10.77
2023-04-18T12:31:01.156Z,13.18
2023-04-18T12:33:31.705Z,12.23
2023-04-18T12:36:01.988Z,11.77
2023-04-18T12:38:30.354Z,12.43
2023-04-18T12:40:59.168Z,12.70
2023-04-18T12:43:27.746Z,13.20
2023-04-18T12:45:56.564Z,12.07
2023-04-18T12:48:24.930Z,12.05
2023-04-18T12:50:54.934Z,12.85
2023-04-18T12:53:24.205Z,13.57
2023-04-18T12:55:52.991Z,14.00
2023-04-18T12:58:21.766Z,14.23
2023-04-18T13:00:50.191Z,13.20
2023-04-18T13:03:19.187Z,13.18
2023-04-18T13:05:47.831Z,13.35
2023-04-18T13:08:18.377Z,12.52
2023-04-18T13:10:47.632Z,11.52
2023-04-18T13:13:16.568Z,11.60
2023-04-18T13:15:45.513Z,12.25
2023-04-18T13:18:14.330Z,12.60
2023-04-18T13:20:44.419Z,12.88
2023-04-18T13:23:12.785Z,12.40
2023-04-18T13:25:43.337Z,12.00
2023-04-18T13:28:11.696Z,11.30
2023-04-18T13:30:40.466Z,10.95
2023-04-18T13:33:10.266Z,11.77
2023-04-18T13:35:39.950Z,10.38
2023-04-18T13:38:08.354Z,9.95
2023-04-18T13:40:39.243Z,10.18
2023-04-18T13:43:10.906Z,9.52
2023-04-18T13:45:40.098Z,10.00
2023-04-18T13:48:08.939Z,8.95
2023-04-18T13:50:37.307Z,9.50
2023-04-18T13:53:06.151Z,9.30
2023-04-18T13:55:37.280Z,10.32
2023-04-18T13:58:07.942Z,9.63
2023-04-18T14:00:39.621Z,10.27
2023-04-18T14:03:08.708Z,9.73
2023-04-18T14:05:37.605Z,9.82
2023-04-18T14:08:06.517Z,9.82
2023-04-18T14:10:36.795Z,9.45
2023-04-18T14:13:05.143Z,8.70
2023-04-18T14:15:34.527Z,8.60
2023-04-18T14:18:04.594Z,10.23
2023-04-18T14:20:35.121Z,9.75
2023-04-18T14:23:03.501Z,8.80
2023-04-18T14:25:33.151Z,10.07
2023-04-18T14:28:07.876Z,10.30
2023-04-18T14:30:37.093Z,8.73
2023-04-18T14:33:09.717Z,9.82
2023-04-18T14:35:38.460Z,9.85
2023-04-18T14:38:07.475Z,9.15
2023-04-18T14:40:36.409Z,8.77
2023-04-18T14:43:04.779Z,10.30
2023-04-18T14:45:34.816Z,10.32
2023-04-18T14:48:03.969Z,9.77
2023-04-18T14:50:33.673Z,10.25
2023-04-18T14:53:02.770Z,10.90
2023-04-18T14:55:31.284Z,9.65
2023-04-18T14:58:00.165Z,9.25
2023-04-18T15:00:28.644Z,8.85
2023-04-18T15:02:57.769Z,8.95
2023-04-18T15:05:26.496Z,9.82
2023-04-18T15:07:56.451Z,9.73
2023-04-18T15:10:25.020Z,9.73
2023-04-18T15:12:54.920Z,8.85
2023-04-18T15:15:25.164Z,9.15
2023-04-18T15:17:53.529Z,9.10
2023-04-18T15:20:24.006Z,9.70
2023-04-18T15:22:52.687Z,9.57
2023-04-18T15:25:24.408Z,11.35
2023-04-18T15:27:53.199Z,9.77
2023-04-18T15:30:22.379Z,9.85
2023-04-18T15:32:52.176Z,10.68
2023-04-18T15:35:21.117Z,10.93
2023-04-18T15:37:51.285Z,10.98
2023-04-18T15:40:19.860Z,12.55
2023-04-18T15:42:53.557Z,11.30
2023-04-18T15:45:22.594Z,9.80
2023-04-18T15:47:52.052Z,10.68
2023-04-18T15:50:20.701Z,11.38
2023-04-18T15:52:49.828Z,11.15
2023-04-18T15:55:18.189Z,11.43
2023-04-18T15:57:48.207Z,10.02
2023-04-18T16:00:19.768Z,10.57
2023-04-18T16:02:48.969Z,11.00
2023-04-18T16:05:17.442Z,10.80
2023-04-18T16:07:46.490Z,10.02
2023-04-18T16:10:15.323Z,10.60
2023-04-18T16:12:44.212Z,10.45
2023-04-18T16:15:13.663Z,9.82
2023-04-18T16:17:44.282Z,10.90
2023-04-18T16:20:13.510Z,11.43
2023-04-18T16:22:42.136Z,13.50
2023-04-18T16:27:57.401Z,14.88
2023-04-18T16:30:25.769Z,10.55
2023-04-18T16:32:56.086Z,10.93
2023-04-18T16:35:24.768Z,12.13
2023-04-18T16:37:53.682Z,16.80
2023-04-18T16:40:22.076Z,15.43
2023-04-18T16:42:52.723Z,12.93
2023-04-18T16:45:21.528Z,10.80
2023-04-18T16:47:49.925Z,9.00
2023-04-18T16:50:20.532Z,9.07
2023-04-18T16:52:48.949Z,9.15
2023-04-18T16:55:18.861Z,9.80
2023-04-18T16:57:47.201Z,10.63
2023-04-18T17:00:16.624Z,9.98
2023-04-18T17:02:45.247Z,10.05
2023-04-18T17:05:14.618Z,10.23
2023-04-18T17:07:45.840Z,10.80
2023-04-18T17:10:15.051Z,11.32
2023-04-18T17:12:43.505Z,10.90
2023-04-18T17:15:12.570Z,12.07
2023-04-18T17:17:41.372Z,14.82
2023-04-18T17:20:10.977Z,16.50
2023-04-18T17:22:40.787Z,12.55
2023-04-18T17:25:12.166Z,11.88
2023-04-18T17:27:41.440Z,13.05
2023-04-18T17:30:11.520Z,11.68
2023-04-18T17:32:42.996Z,12.55
2023-04-18T17:35:11.527Z,11.93
2023-04-18T17:37:39.912Z,12.32
2023-04-18T17:40:11.888Z,12.15
2023-04-18T17:42:42.276Z,12.55
2023-04-18T17:45:11.231Z,11.77
2023-04-18T17:47:40.806Z,12.35
2023-04-18T17:50:10.176Z,12.15
2023-04-18T17:52:39.533Z,11.55
2023-04-18T17:55:10.825Z,11.48
2023-04-18T17:57:39.249Z,11.80
2023-04-18T18:00:12.187Z,11.15
2023-04-18T18:02:43.691Z,11.05
2023-04-18T18:05:14.131Z,11.85
2023-04-18T18:07:47.417Z,11.38
2023-04-18T18:10:19.961Z,11.43
2023-04-18T18:12:49.138Z,10.73
2023-04-18T18:15:18.973Z,10.90
2023-04-18T18:17:49.396Z,10.10
2023-04-18T18:20:19.064Z,8.38
2023-04-18T18:22:48.575Z,10.23
2023-04-18T18:25:18.347Z,10.98
2023-04-18T18:27:48.583Z,10.13
2023-04-18T18:30:17.268Z,9.68
2023-04-18T18:32:46.579Z,11.02
2023-04-18T18:35:16.191Z,11.43
2023-04-18T18:37:44.889Z,11.90
2023-04-18T18:40:15.155Z,11.65
2023-04-18T18:42:45.021Z,11.30
2023-04-18T18:45:15.027Z,14.07
2023-04-18T18:47:43.453Z,15.82
2023-04-18T18:50:12.744Z,14.20
2023-04-18T18:52:43.025Z,14.52
2023-04-18T18:55:13.687Z,12.10
2023-04-18T18:57:42.034Z,10.07
2023-04-18T19:00:13.761Z,10.57
2023-04-18T19:02:42.850Z,9.55
2023-04-18T19:05:12.742Z,8.68
2023-04-18T19:07:43.352Z,9.68
2023-04-18T19:10:12.177Z,9.63
2023-04-18T19:12:41.261Z,12.30
2023-04-18T19:15:10.743Z,15.45
2023-04-18T19:17:42.101Z,14.02
2023-04-18T19:20:10.724Z,10.90
2023-04-18T19:22:40.084Z,10.05
2023-04-18T19:25:09.918Z,17.65
2023-04-18T19:27:39.971Z,22.02
2023-04-18T19:30:10.573Z,13.60
2023-04-18T19:32:40.843Z,11.98
2023-04-18T19:35:13.077Z,9.90
2023-04-18T19:38:01.698Z,8.70
2023-04-18T19:40:30.820Z,7.57
2023-04-18T19:42:59.221Z,6.40
2023-04-18T19:45:28.772Z,7.22
2023-04-18T19:47:58.513Z,6.45
2023-04-18T19:50:27.601Z,6.65
2023-04-18T19:52:58.871Z,6.07
2023-04-18T19:55:27.515Z,7.10
2023-04-18T19:57:57.473Z,6.10
2023-04-18T20:00:25.876Z,6.20
2023-04-18T20:02:54.391Z,5.65
2023-04-18T20:05:24.753Z,7.22
2023-04-18T20:07:54.655Z,6.55
2023-04-18T20:10:23.157Z,6.40
2023-04-18T20:12:51.533Z,5.93
2023-04-18T20:15:20.300Z,6.03
2023-04-18T20:17:48.688Z,6.13
2023-04-18T20:20:17.619Z,6.32
2023-04-18T20:22:47.763Z,6.22
2023-04-18T20:25:17.888Z,6.22
2023-04-18T20:27:46.244Z,6.18
2023-04-18T20:30:15.821Z,5.75
2023-04-18T20:32:44.314Z,6.40
2023-04-18T20:35:13.739Z,6.15
2023-04-18T20:37:42.146Z,6.32
2023-04-18T20:40:13.895Z,8.23
2023-04-18T20:42:42.240Z,7.30
2023-04-18T20:45:11.722Z,6.80
2023-04-18T20:47:41.242Z,7.03
2023-04-18T20:50:10.650Z,6.80
2023-04-18T20:52:43.101Z,6.63
2023-04-18T20:55:13.146Z,7.57
2023-04-18T20:57:43.187Z,7.93
2023-04-18T21:00:13.894Z,6.95
2023-04-18T21:02:43.385Z,7.45
2023-04-18T21:05:12.046Z,7.95
2023-04-18T21:07:40.433Z,7.45
2023-04-18T21:10:09.951Z,7.68
2023-04-18T21:12:39.818Z,8.05
2023-04-18T21:15:09.678Z,7.63
2023-04-18T21:17:38.063Z,9.05
2023-04-18T21:20:08.513Z,7.93
2023-04-18T21:22:36.937Z,7.97
2023-04-18T21:25:07.390Z,8.75
2023-04-18T21:27:35.860Z,8.07
2023-04-18T21:30:07.878Z,8.65
2023-04-18T21:32:36.402Z,8.23
2023-04-18T21:35:06.377Z,8.88
2023-04-18T21:37:34.995Z,9.13
2023-04-18T21:40:04.941Z,9.52
2023-04-18T21:42:35.484Z,9.27
2023-04-18T21:45:04.161Z,9.18
2023-04-18T21:47:35.088Z,9.65
2023-04-18T21:50:04.154Z,10.20
2023-04-18T21:52:33.337Z,9.93
2023-04-18T21:55:01.772Z,10.13
2023-04-18T21:57:30.834Z,10.02
2023-04-18T21:59:59.757Z,10.10
2023-04-18T22:02:28.789Z,10.95
2023-04-18T22:04:59.548Z,10.70
2023-04-18T22:07:29.503Z,11.90
2023-04-18T22:10:00.329Z,11.40
2023-04-18T22:12:28.659Z,10.98
2023-04-18T22:14:58.113Z,11.50
2023-04-18T22:17:27.051Z,12.90
2023-04-18T22:19:56.447Z,13.65
2023-04-18T22:22:26.135Z,13.10
2023-04-18T22:24:55.294Z,13.52
2023-04-18T22:27:23.655Z,13.07
2023-04-18T22:29:52.554Z,14.15
2023-04-18T22:32:21.506Z,13.75
2023-04-18T22:34:49.870Z,14.30
2023-04-18T22:37:22.420Z,13.93
2023-04-18T22:39:59.371Z,14.10
2023-04-18T22:43:00.940Z,15.73
2023-04-18T22:45:29.305Z,15.23
2023-04-18T22:47:58.394Z,15.77
2023-04-18T22:50:27.372Z,15.57
2023-04-18T22:52:57.606Z,16.63
2023-04-18T22:55:27.371Z,15.23
2023-04-18T22:57:57.130Z,16.17
2023-04-18T23:00:25.442Z,15.77
2023-04-18T23:02:54.814Z,16.73
2023-04-18T23:05:23.828Z,16.40
2023-04-18T23:07:52.171Z,16.00
2023-04-18T23:10:22.195Z,15.25
2023-04-18T23:12:52.464Z,17.88
2023-04-18T23:15:22.856Z,15.43
2023-04-18T23:17:53.425Z,16.73
2023-04-18T23:20:24.114Z,17.77
2023-04-18T23:22:52.767Z,18.02
2023-04-18T23:25:22.687Z,15.65
2023-04-18T23:27:52.443Z,17.17
2023-04-18T23:30:22.525Z,16.45
2023-04-18T23:32:51.013Z,17.15
2023-04-18T23:35:20.179Z,16.05
2023-04-18T23:37:49.156Z,17.05
2023-04-18T23:40:17.897Z,16.48
2023-04-18T23:42:47.478Z,16.52
2023-04-18T23:45:17.345Z,15.75
2023-04-18T23:47:46.165Z,16.77
2023-04-18T23:50:14.541Z,16.42
2023-04-18T23:52:43.814Z,16.02
2023-04-18T23:55:12.278Z,16.50
2023-04-18T23:57:41.845Z,16.40
